Time;durP1;ratioP1;P1;durP2;ratioP2;P2;SDS_P1;SDS_P2;PMS_P1;PMS_P2;Temp;Humidity;BMP_temperature;BMP_pressure;BME280_temperature;BME280_humidity;BME280_pressure;Samples;Min_cycle;Max_cycle;Signal;HPM_P1;HPM_P2
2022/06/28 00:01:24;;;;;;;2.55;2.40;;;;;;;12.92;88.59;101441.84;5034782;27;20325;-74
2022/06/28 00:03:49;;;;;;;6.50;2.40;;;;;;;12.83;88.45;101434.69;5010137;27;20012;-73
2022/06/28 00:06:15;;;;;;;2.65;2.30;;;;;;;12.75;89.28;101431.84;5027153;27;20005;-73
2022/06/28 00:08:40;;;;;;;2.40;2.30;;;;;;;12.63;89.81;101431.94;5008828;27;20015;-73
2022/06/28 00:11:05;;;;;;;3.78;2.38;;;;;;;12.65;89.53;101432.66;5008127;27;20128;-72
2022/06/28 00:13:31;;;;;;;2.58;2.38;;;;;;;12.61;89.28;101425.94;5068721;27;20187;-72
2022/06/28 00:16:06;;;;;;;2.63;2.42;;;;;;;12.60;89.32;101428.72;5034892;27;20873;-73
2022/06/28 00:18:38;;;;;;;2.38;2.20;;;;;;;12.48;89.46;101422.66;5025990;27;20100;-73
2022/06/28 00:21:06;;;;;;;2.20;2.10;;;;;;;12.36;90.03;101430.69;5006772;27;20017;-72
2022/06/28 00:23:32;;;;;;;4.18;2.20;;;;;;;12.34;89.90;101429.16;5005496;27;20479;-73
2022/06/28 00:25:57;;;;;;;5.03;2.30;;;;;;;12.27;90.29;101431.50;5005096;27;20016;-72
2022/06/28 00:28:22;;;;;;;7.13;2.20;;;;;;;12.30;90.31;101425.91;5015621;27;20679;-72
2022/06/28 00:30:48;;;;;;;3.15;2.35;;;;;;;12.33;89.72;101423.00;5003745;27;20190;-72
2022/06/28 00:33:14;;;;;;;2.38;2.17;;;;;;;12.29;90.18;101429.53;5015316;27;20085;-74
2022/06/28 00:35:39;;;;;;;2.60;2.40;;;;;;;12.26;90.52;101435.13;5008143;27;20928;-74
2022/06/28 00:38:05;;;;;;;2.95;2.30;;;;;;;12.36;90.66;101435.16;5011205;27;20052;-74
2022/06/28 00:40:33;;;;;;;4.45;2.15;;;;;;;12.40;91.48;101431.28;5046091;27;20100;-72
2022/06/28 00:42:59;;;;;;;4.72;2.40;;;;;;;12.33;90.30;101430.97;4992491;27;20060;-73
2022/06/28 00:45:25;;;;;;;3.28;2.30;;;;;;;12.27;90.24;101431.50;4992300;27;20091;-73
2022/06/28 00:47:50;;;;;;;3.90;2.70;;;;;;;12.35;89.97;101431.69;5008164;27;20799;-73
2022/06/28 00:50:15;;;;;;;2.40;2.30;;;;;;;12.48;89.63;101433.25;5006496;27;20005;-73
2022/06/28 00:53:09;;;;;;;3.58;2.28;;;;;;;12.34;90.31;101432.66;5017933;27;20078;-73
2022/06/28 00:55:35;;;;;;;2.50;2.40;;;;;;;12.25;90.32;101438.72;5006700;27;20009;-74
2022/06/28 00:58:00;;;;;;;3.55;2.25;;;;;;;12.26;90.94;101428.97;4997754;27;20036;-72
2022/06/28 01:00:27;;;;;;;3.65;2.47;;;;;;;12.21;90.63;101432.00;5033404;27;20033;-73
2022/06/28 01:02:52;;;;;;;4.72;2.38;;;;;;;12.30;90.20;101433.88;5034005;27;20337;-75
2022/06/28 01:05:18;;;;;;;3.50;2.10;;;;;;;12.33;89.66;101430.13;5016851;27;20289;-73
2022/06/28 01:07:44;;;;;;;5.63;2.33;;;;;;;12.27;89.76;101430.63;5032418;27;20021;-73
2022/06/28 01:10:10;;;;;;;3.03;2.38;;;;;;;12.28;89.89;101427.88;5028545;27;20052;-72
2022/06/28 01:12:35;;;;;;;4.25;2.20;;;;;;;12.30;89.34;101431.22;5019783;27;20017;-73
2022/06/28 01:15:01;;;;;;;3.38;1.98;;;;;;;12.53;87.94;101428.41;5008105;27;20468;-73
2022/06/28 01:17:26;;;;;;;3.17;2.10;;;;;;;12.58;87.16;101428.88;5001909;27;20189;-73
2022/06/28 01:19:52;;;;;;;2.95;2.40;;;;;;;12.28;88.69;101432.31;5017785;27;20032;-72
2022/06/28 01:22:17;;;;;;;2.45;1.95;;;;;;;12.20;89.61;101435.66;5055741;27;20990;-72
2022/06/28 01:24:43;;;;;;;2.85;1.98;;;;;;;12.14;89.69;101438.81;5020696;27;20571;-74
2022/06/28 01:27:08;;;;;;;5.22;2.20;;;;;;;12.11;89.65;101439.06;5000325;27;20116;-73
2022/06/28 01:29:34;;;;;;;2.40;2.20;;;;;;;12.03;89.81;101437.91;4985042;27;20016;-74
2022/06/28 01:31:59;;;;;;;3.28;1.98;;;;;;;12.20;89.35;101446.25;5014137;27;20021;-72
2022/06/28 01:34:25;;;;;;;2.58;2.35;;;;;;;11.99;89.12;101447.09;5014415;27;21030;-73
2022/06/28 01:36:50;;;;;;;2.47;2.10;;;;;;;12.13;88.56;101450.41;5014901;27;20009;-73
2022/06/28 01:39:15;;;;;;;2.20;2.00;;;;;;;12.09;89.03;101456.94;5016388;27;20436;-73
2022/06/28 01:41:43;;;;;;;2.30;1.80;;;;;;;12.04;89.13;101457.31;5015915;27;20141;-74
2022/06/28 01:44:08;;;;;;;2.17;1.90;;;;;;;12.07;88.65;101464.19;5016682;27;20552;-72
2022/06/28 01:46:38;;;;;;;3.40;1.90;;;;;;;12.01;89.08;101463.75;5014458;27;20012;-72
2022/06/28 01:49:07;;;;;;;2.03;1.92;;;;;;;12.00;88.91;101462.03;5020135;27;20115;-73
2022/06/28 01:51:32;;;;;;;3.35;1.85;;;;;;;12.24;87.99;101473.38;5034127;27;20014;-74
2022/06/28 01:53:57;;;;;;;4.45;2.17;;;;;;;12.07;88.11;101462.38;5054251;27;20028;-73
2022/06/28 01:56:23;;;;;;;2.13;1.92;;;;;;;12.13;87.75;101458.38;5021713;27;20857;-72
2022/06/28 01:58:48;;;;;;;4.63;2.15;;;;;;;12.05;88.20;101459.00;5016657;27;20169;-73
2022/06/28 02:01:14;;;;;;;2.17;2.00;;;;;;;12.07;88.30;101469.47;4975241;27;20017;-74
2022/06/28 02:03:41;;;;;;;4.18;2.15;;;;;;;12.12;88.36;101469.94;4990758;28;20152;-74
2022/06/28 02:06:06;;;;;;;3.60;2.38;;;;;;;12.07;88.43;101474.78;5015349;28;20025;-72
2022/06/28 02:08:35;;;;;;;2.45;2.25;;;;;;;12.03;89.27;101488.31;4995831;28;20384;-74
2022/06/28 02:11:01;;;;;;;2.88;2.67;;;;;;;11.99;90.00;101486.06;4978465;28;20109;-73
2022/06/28 02:13:26;;;;;;;2.92;2.67;;;;;;;11.99;89.55;101481.56;4996134;28;20748;-73
2022/06/28 02:15:52;;;;;;;2.83;2.63;;;;;;;11.92;90.01;101483.03;4994594;28;20220;-74
2022/06/28 02:18:17;;;;;;;2.80;2.60;;;;;;;11.82;90.25;101487.41;5014063;28;20952;-73
2022/06/28 02:20:43;;;;;;;5.57;2.70;;;;;;;11.88;90.38;101492.22;4990155;28;20036;-73
2022/06/28 02:23:08;;;;;;;2.45;2.35;;;;;;;11.90;89.51;101482.31;4976230;28;20061;-72
2022/06/28 02:25:34;;;;;;;3.72;2.60;;;;;;;11.99;88.75;101489.53;5026148;27;20913;-73
2022/06/28 02:27:59;;;;;;;3.95;2.92;;;;;;;11.90;88.91;101494.72;5011492;28;20425;-73
2022/06/28 02:30:24;;;;;;;5.18;2.75;;;;;;;11.90;89.65;101492.94;4989476;27;20571;-73
2022/06/28 02:32:50;;;;;;;4.90;2.88;;;;;;;11.80;89.66;101492.84;5022725;28;20486;-72
2022/06/28 02:40:43;;;;;;;3.60;3.30;;;;;;;11.97;89.43;101487.97;5040884;27;20024;-73
2022/06/28 02:43:09;;;;;;;3.00;2.90;;;;;;;12.00;89.16;101488.56;5014265;28;20036;-73
2022/06/28 02:45:35;;;;;;;3.00;2.80;;;;;;;12.05;88.60;101497.97;5014725;28;20021;-72
2022/06/28 02:48:01;;;;;;;3.42;2.90;;;;;;;11.99;88.72;101505.44;5014616;28;20451;-73
2022/06/28 02:50:26;;;;;;;2.95;2.75;;;;;;;12.00;88.28;101503.63;4985713;28;20545;-73
2022/06/28 02:52:52;;;;;;;3.10;2.90;;;;;;;11.94;89.10;101506.81;5008291;28;20911;-73
2022/06/28 02:55:17;;;;;;;3.60;3.17;;;;;;;11.90;88.70;101498.25;4997057;27;20081;-72
2022/06/28 02:57:42;;;;;;;2.92;2.65;;;;;;;11.79;89.02;101511.53;5015243;28;20301;-73
2022/06/28 03:00:10;;;;;;;2.75;2.63;;;;;;;11.72;89.41;101510.34;4990794;28;20534;-73
2022/06/28 03:02:37;;;;;;;3.17;3.00;;;;;;;11.65;89.97;101504.72;4990298;28;20025;-73
2022/06/28 03:05:13;;;;;;;4.72;3.03;;;;;;;11.73;89.32;101512.03;4982029;28;20025;-72
2022/06/28 03:07:38;;;;;;;8.35;2.90;;;;;;;11.80;88.83;101510.56;5000887;28;20097;-72
2022/06/28 03:10:04;;;;;;;3.38;2.67;;;;;;;11.68;89.05;101515.88;4996787;27;20029;-73
2022/06/28 03:12:30;;;;;;;3.50;3.22;;;;;;;11.62;89.06;101515.53;4998094;28;20455;-73
2022/06/28 03:14:55;;;;;;;3.38;2.88;;;;;;;11.55;89.21;101524.97;4997836;27;21027;-72
2022/06/28 03:17:21;;;;;;;5.22;3.00;;;;;;;11.48;89.42;101524.63;4999456;27;20013;-73
2022/06/28 03:19:46;;;;;;;3.28;3.00;;;;;;;11.37;89.49;101520.19;5016852;27;20631;-73
2022/06/28 03:22:11;;;;;;;3.10;2.90;;;;;;;11.43;89.56;101518.84;5016643;27;20377;-73
2022/06/28 03:24:37;;;;;;;3.33;3.10;;;;;;;11.38;89.73;101518.38;5002631;27;20191;-73
2022/06/28 03:27:02;;;;;;;3.58;3.13;;;;;;;11.38;89.43;101526.31;5016171;27;20112;-73
2022/06/28 03:29:28;;;;;;;3.30;3.00;;;;;;;11.33;89.81;101532.00;4998600;27;20188;-72
2022/06/28 03:31:53;;;;;;;6.15;3.10;;;;;;;11.33;89.79;101538.13;4997023;28;20062;-72
2022/06/28 03:34:19;;;;;;;3.08;2.97;;;;;;;11.44;89.67;101541.75;5017398;27;20888;-72
2022/06/28 03:36:45;;;;;;;3.05;2.95;;;;;;;11.58;88.67;101535.34;4999934;27;20261;-73
2022/06/28 03:39:11;;;;;;;3.92;3.08;;;;;;;11.68;87.99;101537.09;5017059;27;20040;-72
2022/06/28 03:41:36;;;;;;;3.33;3.00;;;;;;;11.68;88.08;101544.22;4998632;27;20057;-73
2022/06/28 03:44:02;;;;;;;3.55;3.30;;;;;;;11.64;87.88;101550.75;5017243;27;20024;-73
2022/06/28 03:46:27;;;;;;;3.58;3.28;;;;;;;11.48;89.08;101546.66;5018074;27;20016;-73
2022/06/28 03:48:52;;;;;;;6.03;3.30;;;;;;;11.45;88.94;101551.34;5027771;27;20612;-73
2022/06/28 03:51:18;;;;;;;3.53;3.30;;;;;;;11.44;89.42;101547.03;5015071;27;20524;-73
2022/06/28 03:53:44;;;;;;;3.60;3.40;;;;;;;11.41;89.43;101545.47;4983529;27;20016;-73
2022/06/28 03:56:10;;;;;;;3.60;3.40;;;;;;;11.34;89.25;101539.81;5016479;27;20020;-72
2022/06/28 03:58:35;;;;;;;3.30;3.10;;;;;;;11.32;89.55;101540.91;5040340;27;20783;-73
2022/06/28 04:01:01;;;;;;;4.18;3.60;;;;;;;11.35;89.18;101551.25;5019229;27;20028;-72
2022/06/28 04:03:26;;;;;;;4.05;3.50;;;;;;;11.32;89.85;101549.72;4990454;27;20269;-73
2022/06/28 04:05:52;;;;;;;3.90;3.65;;;;;;;11.43;89.23;101558.59;4991380;27;20025;-72
2022/06/28 04:08:17;;;;;;;3.50;3.30;;;;;;;11.48;89.59;101556.44;5010703;27;20105;-72
2022/06/28 04:10:43;;;;;;;4.00;3.70;;;;;;;11.51;89.78;101557.03;5027905;27;20017;-71
2022/06/28 04:13:08;;;;;;;3.63;3.40;;;;;;;11.61;89.92;101561.59;5010099;27;20968;-72
2022/06/28 04:15:35;;;;;;;3.72;3.53;;;;;;;11.64;89.73;101570.13;4991909;27;20547;-72
2022/06/28 04:18:01;;;;;;;3.65;3.22;;;;;;;11.79;88.20;101570.72;4992983;27;20047;-73
2022/06/28 04:20:26;;;;;;;4.60;3.53;;;;;;;11.85;88.03;101574.69;5028692;27;20090;-72
2022/06/28 04:22:52;;;;;;;4.10;3.78;;;;;;;11.84;88.16;101573.84;5026483;27;20417;-73
2022/06/28 04:25:17;;;;;;;8.93;3.55;;;;;;;11.75;88.38;101566.63;5011712;27;20491;-71
2022/06/28 04:27:43;;;;;;;3.85;3.55;;;;;;;11.66;89.11;101572.66;5030178;27;20024;-73
2022/06/28 04:30:09;;;;;;;3.72;3.53;;;;;;;11.67;89.51;101579.66;5012441;27;20024;-73
2022/06/28 04:32:34;;;;;;;3.83;3.72;;;;;;;11.64;90.27;101571.94;5023642;27;20401;-74
2022/06/28 04:34:59;;;;;;;6.95;4.13;;;;;;;11.65;90.26;101579.78;4991758;27;20930;-73
2022/06/28 04:37:25;;;;;;;4.47;4.15;;;;;;;11.68;90.58;101576.88;4990195;27;20101;-73
2022/06/28 04:39:51;;;;;;;5.78;3.90;;;;;;;11.72;90.12;101568.66;4994260;27;20526;-72
2022/06/28 04:42:17;;;;;;;4.32;4.05;;;;;;;11.77;90.15;101567.31;5027206;27;20029;-73
2022/06/28 04:44:43;;;;;;;3.70;3.45;;;;;;;11.84;90.04;101565.03;5027826;27;20124;-73
2022/06/28 04:47:09;;;;;;;5.03;3.80;;;;;;;11.93;89.75;101564.28;4993139;27;20529;-72
2022/06/28 04:49:34;;;;;;;5.57;3.75;;;;;;;11.93;89.76;101572.25;5004844;27;20127;-72
2022/06/28 04:52:00;;;;;;;3.78;3.58;;;;;;;12.01;90.07;101569.84;5022142;27;20009;-72
2022/06/28 04:54:25;;;;;;;4.13;3.78;;;;;;;12.07;89.77;101562.31;5003991;27;20056;-72
2022/06/28 04:56:52;;;;;;;4.30;4.03;;;;;;;12.13;89.88;101557.38;5007745;27;20028;-73
2022/06/28 04:59:17;;;;;;;4.90;4.50;;;;;;;12.40;89.23;101564.00;5011801;27;20063;-73
2022/06/28 05:01:43;;;;;;;5.18;4.72;;;;;;;12.39;89.13;101566.78;4987192;28;20005;-72
2022/06/28 05:04:08;;;;;;;5.75;4.60;;;;;;;12.35;89.42;101563.53;5029062;27;20033;-72
2022/06/28 05:06:34;;;;;;;4.68;4.40;;;;;;;12.40;89.96;101571.13;5003128;27;20103;-73
2022/06/28 05:08:59;;;;;;;4.40;4.20;;;;;;;12.52;89.39;101562.13;5005856;27;20013;-73
2022/06/28 05:11:25;;;;;;;4.38;4.18;;;;;;;12.54;89.40;101568.16;5004349;27;20679;-73
2022/06/28 05:13:50;;;;;;;4.40;4.20;;;;;;;12.68;89.20;101567.81;4989581;27;20028;-73
2022/06/28 05:16:16;;;;;;;4.63;4.35;;;;;;;12.73;90.20;101559.44;4992416;27;20101;-72
2022/06/28 05:18:41;;;;;;;4.85;4.45;;;;;;;12.84;89.92;101559.38;5005361;27;20997;-72
2022/06/28 05:21:06;;;;;;;4.60;4.30;;;;;;;12.92;89.69;101557.91;5025476;27;20942;-73
2022/06/28 05:23:32;;;;;;;4.85;4.40;;;;;;;12.97;90.21;101559.19;5032192;27;20037;-72
2022/06/28 05:25:58;;;;;;;7.60;4.60;;;;;;;13.05;90.57;101566.47;5000446;27;20021;-73
2022/06/28 05:28:23;;;;;;;7.05;4.97;;;;;;;13.12;91.85;101569.47;4996763;27;20024;-73
2022/06/28 05:30:49;;;;;;;4.90;4.70;;;;;;;13.15;92.21;101572.69;5017110;27;20028;-72
2022/06/28 05:33:14;;;;;;;5.25;4.80;;;;;;;13.28;92.37;101576.94;5018667;27;20471;-73
2022/06/28 05:35:40;;;;;;;5.53;5.13;;;;;;;13.36;92.42;101567.34;5023367;27;20436;-72
2022/06/28 05:38:06;;;;;;;5.50;5.03;;;;;;;13.48;92.27;101572.53;5002477;27;20021;-74
2022/06/28 05:40:31;;;;;;;5.50;5.10;;;;;;;13.52;92.35;101571.31;5008206;27;20356;-73
2022/06/28 05:42:56;;;;;;;5.30;4.85;;;;;;;13.55;92.56;101563.91;5016976;27;20039;-72
2022/06/28 05:45:22;;;;;;;5.05;4.75;;;;;;;13.69;92.35;101561.81;5020481;27;20092;-73
2022/06/28 05:47:47;;;;;;;4.80;4.40;;;;;;;13.83;91.52;101555.25;5026466;27;20490;-74
2022/06/28 05:50:13;;;;;;;4.90;4.50;;;;;;;13.91;91.05;101550.09;5023301;27;20925;-73
2022/06/28 05:52:38;;;;;;;4.57;4.28;;;;;;;14.05;90.23;101560.31;5022785;27;20016;-73
2022/06/28 05:55:04;;;;;;;4.40;4.10;;;;;;;14.06;89.77;101554.03;5040588;27;20811;-72
2022/06/28 05:57:29;;;;;;;4.70;4.43;;;;;;;14.16;89.60;101558.53;5032238;27;20304;-72
2022/06/28 05:59:55;;;;;;;4.78;4.32;;;;;;;14.19;89.08;101559.06;5015570;27;20044;-73
2022/06/28 06:02:20;;;;;;;4.68;4.30;;;;;;;14.25;88.44;101563.00;5031943;27;20149;-73
2022/06/28 06:04:46;;;;;;;4.85;4.55;;;;;;;14.34;88.89;101556.84;5017588;27;20021;-73
2022/06/28 06:07:11;;;;;;;5.15;4.78;;;;;;;14.39;88.02;101559.88;5041382;27;20806;-73
2022/06/28 06:09:37;;;;;;;4.25;3.95;;;;;;;14.48;87.54;101563.53;5016120;27;20017;-72
2022/06/28 06:12:05;;;;;;;5.05;4.20;;;;;;;14.59;87.41;101565.19;5036376;27;20349;-74
2022/06/28 06:14:31;;;;;;;4.53;4.15;;;;;;;14.64;88.04;101560.31;5029425;27;20008;-73
2022/06/28 06:16:56;;;;;;;5.45;4.95;;;;;;;14.69;86.64;101560.75;5036685;27;20017;-73
2022/06/28 06:19:21;;;;;;;5.65;4.13;;;;;;;14.69;85.71;101560.75;5034600;27;20504;-74
2022/06/28 06:21:47;;;;;;;4.60;4.30;;;;;;;14.69;85.92;101566.06;5010093;27;20867;-75
2022/06/28 06:24:12;;;;;;;7.35;3.90;;;;;;;14.77;85.44;101566.16;5003921;27;20035;-73
2022/06/28 06:26:38;;;;;;;4.25;3.95;;;;;;;14.74;85.54;101562.97;5010191;27;20025;-72
2022/06/28 06:29:03;;;;;;;6.60;4.00;;;;;;;14.88;86.22;101569.66;5025582;27;20195;-73
2022/06/28 06:31:29;;;;;;;5.93;3.60;;;;;;;14.93;88.16;101573.56;5023133;27;20023;-74
2022/06/28 06:33:55;;;;;;;3.88;3.60;;;;;;;15.03;87.23;101578.88;5032128;27;20414;-73
2022/06/28 06:36:21;;;;;;;3.90;3.60;;;;;;;15.17;86.05;101579.38;5048858;27;20008;-73
2022/06/28 06:38:47;;;;;;;4.82;3.45;;;;;;;15.10;84.74;101579.09;5022693;28;20006;-74
2022/06/28 06:41:13;;;;;;;3.95;3.55;;;;;;;15.13;84.76;101580.66;5012631;27;20386;-74
2022/06/28 06:43:38;;;;;;;3.88;3.58;;;;;;;15.21;85.42;101564.75;5045058;27;20051;-74
2022/06/28 06:46:03;;;;;;;3.75;3.50;;;;;;;15.27;84.41;101574.81;5009145;27;20023;-73
2022/06/28 06:48:29;;;;;;;3.83;3.53;;;;;;;15.37;83.75;101575.63;5017991;27;20020;-73
2022/06/28 06:50:54;;;;;;;5.32;3.67;;;;;;;15.38;84.00;101577.28;5013002;27;20183;-73
2022/06/28 06:53:20;;;;;;;3.45;3.25;;;;;;;15.46;83.58;101569.41;5017461;27;20023;-73
2022/06/28 06:55:47;;;;;;;4.35;3.10;;;;;;;15.49;82.01;101568.28;5024876;27;20312;-74
2022/06/28 06:58:12;;;;;;;5.55;3.20;;;;;;;15.57;82.05;101573.69;5018439;27;20034;-73
2022/06/28 07:00:38;;;;;;;3.97;3.05;;;;;;;15.64;81.93;101581.97;4989198;28;20029;-75
2022/06/28 07:03:03;;;;;;;3.33;2.90;;;;;;;15.66;81.11;101576.47;4993781;28;20827;-73
2022/06/28 07:05:29;;;;;;;3.03;2.83;;;;;;;15.70;80.25;101581.34;4996115;27;20023;-73
2022/06/28 07:07:55;;;;;;;2.65;2.50;;;;;;;15.71;79.57;101577.69;4997784;27;20017;-74
2022/06/28 07:10:20;;;;;;;4.30;3.03;;;;;;;15.74;79.32;101572.06;4994833;27;20101;-73
2022/06/28 07:12:46;;;;;;;3.63;2.85;;;;;;;15.87;79.51;101576.22;4997563;27;20097;-74
2022/06/28 07:15:11;;;;;;;2.80;2.60;;;;;;;15.89;79.09;101575.09;4986520;27;20212;-73
2022/06/28 07:17:37;;;;;;;4.03;2.60;;;;;;;15.99;77.99;101571.50;4996888;27;20005;-73
2022/06/28 07:20:02;;;;;;;2.47;2.22;;;;;;;16.10;77.06;101566.78;4982983;27;21010;-73
2022/06/28 07:22:28;;;;;;;5.25;2.70;;;;;;;16.19;75.48;101574.84;5029480;27;20056;-74
2022/06/28 07:24:53;;;;;;;2.72;2.50;;;;;;;16.24;73.16;101575.22;5032627;27;20017;-74
2022/06/28 07:27:19;;;;;;;4.53;2.50;;;;;;;16.29;73.60;101571.09;5010654;27;20090;-72
2022/06/28 07:29:45;;;;;;;3.25;2.35;;;;;;;16.38;73.88;101574.69;4996644;27;20280;-74
2022/06/28 07:32:11;;;;;;;2.50;2.30;;;;;;;16.48;75.25;101564.75;4996274;27;20433;-73
2022/06/28 07:34:36;;;;;;;4.25;2.90;;;;;;;16.53;72.76;101566.13;4996522;27;20025;-74
2022/06/28 07:37:02;;;;;;;4.82;2.78;;;;;;;16.59;71.22;101570.84;4982807;27;20274;-74
2022/06/28 07:39:27;;;;;;;3.22;2.38;;;;;;;16.65;70.24;101571.06;5033162;27;20467;-74
2022/06/28 07:41:53;;;;;;;5.45;2.90;;;;;;;16.78;71.51;101570.63;5035607;27;20040;-74
2022/06/28 07:44:19;;;;;;;2.92;2.47;;;;;;;16.96;72.50;101567.09;5002284;27;20084;-72
2022/06/28 07:46:44;;;;;;;3.08;2.08;;;;;;;16.95;72.49;101576.94;5013071;27;20016;-71
2022/06/28 07:49:10;;;;;;;2.35;2.15;;;;;;;16.93;71.45;101572.75;5036419;27;20726;-74
2022/06/28 07:54:20;;;;;;;2.92;2.13;;;;;;;17.16;72.05;101568.53;5019338;27;20031;-73
2022/06/28 07:56:45;;;;;;;2.33;2.10;;;;;;;17.16;70.04;101563.19;5016311;27;20017;-74
2022/06/28 07:59:11;;;;;;;2.90;1.88;;;;;;;17.20;67.22;101568.22;4991637;27;21033;-73
2022/06/28 08:01:36;;;;;;;2.30;1.90;;;;;;;17.26;68.04;101563.06;5009854;27;20012;-73
2022/06/28 08:04:02;;;;;;;2.78;2.00;;;;;;;17.36;69.27;101557.59;5014955;27;20666;-74
2022/06/28 08:06:27;;;;;;;3.22;1.98;;;;;;;17.48;67.96;101558.94;4997146;28;20009;-72
2022/06/28 08:08:53;;;;;;;4.97;2.00;;;;;;;17.60;70.26;101561.34;5012496;28;20017;-73
2022/06/28 08:11:18;;;;;;;2.47;1.73;;;;;;;17.67;67.83;101559.69;4978973;28;19997;-73
2022/06/28 08:13:46;;;;;;;1.50;1.40;;;;;;;17.78;66.79;101559.38;4980438;27;20067;-73
2022/06/28 08:16:11;;;;;;;1.55;1.40;;;;;;;17.84;65.58;101555.22;5014884;27;20518;-73
2022/06/28 08:18:36;;;;;;;2.42;1.60;;;;;;;17.88;65.00;101553.03;4997616;27;20811;-73
2022/06/28 08:21:02;;;;;;;2.13;1.52;;;;;;;18.02;63.06;101552.38;5018774;27;20032;-74
2022/06/28 08:23:27;;;;;;;2.17;1.20;;;;;;;18.08;59.49;101546.38;5016656;27;20147;-74
2022/06/28 08:25:53;;;;;;;2.80;1.40;;;;;;;18.10;60.12;101547.03;4994792;27;20065;-74
2022/06/28 08:28:21;;;;;;;4.38;1.40;;;;;;;18.10;62.42;101547.03;5017420;27;20857;-74
2022/06/28 08:30:46;;;;;;;1.30;1.20;;;;;;;18.12;62.33;101542.38;5021260;27;20052;-75
2022/06/28 08:33:12;;;;;;;2.85;1.80;;;;;;;18.28;64.12;101540.69;5017229;27;20033;-72
2022/06/28 08:35:38;;;;;;;2.42;1.30;;;;;;;18.44;62.80;101545.19;4996279;27;20009;-74
2022/06/28 08:38:05;;;;;;;3.70;1.50;;;;;;;18.52;59.95;101537.97;5015241;27;20021;-73
2022/06/28 08:40:30;;;;;;;1.33;1.23;;;;;;;18.50;59.22;101540.00;4993426;27;20109;-75
2022/06/28 08:42:56;;;;;;;1.42;1.33;;;;;;;18.67;60.58;101539.97;5010764;27;20791;-74
2022/06/28 08:45:22;;;;;;;3.47;1.30;;;;;;;18.84;61.45;101538.94;4979417;27;20944;-73
2022/06/28 08:47:47;;;;;;;3.63;1.50;;;;;;;18.97;58.36;101540.28;4980338;27;20020;-74
2022/06/28 08:50:34;;;;;;;3.55;1.80;;;;;;;18.93;56.90;101539.78;5007291;27;20275;-74
2022/06/28 08:53:07;;;;;;;2.05;1.77;;;;;;;18.99;56.72;101538.25;5007839;27;20025;-73
2022/06/28 08:55:33;;;;;;;1.95;1.45;;;;;;;18.97;55.67;101534.91;5006758;27;20124;-73
2022/06/28 08:57:59;;;;;;;2.38;1.60;;;;;;;19.11;57.20;101536.03;4994621;27;20017;-73
2022/06/28 09:00:24;;;;;;;1.48;1.33;;;;;;;19.31;60.10;101520.34;5009145;27;20381;-74
2022/06/28 09:02:50;;;;;;;2.05;1.30;;;;;;;19.45;55.93;101527.63;4996964;27;20032;-74
2022/06/28 09:05:16;;;;;;;2.80;1.60;;;;;;;19.46;56.91;101517.72;4996804;27;20033;-75
2022/06/28 09:07:44;;;;;;;1.45;1.27;;;;;;;19.66;57.87;101515.44;4983479;27;20420;-73
2022/06/28 09:10:09;;;;;;;1.38;1.23;;;;;;;19.75;56.32;101519.72;5028702;27;20359;-73
2022/06/28 09:12:35;;;;;;;2.13;1.10;;;;;;;19.86;58.26;101503.22;5014917;27;20025;-73
2022/06/28 09:15:04;;;;;;;1.30;1.20;;;;;;;20.05;56.17;101509.13;5036229;27;20020;-74
2022/06/28 09:17:30;;;;;;;1.17;1.10;;;;;;;20.24;59.72;101503.25;5028624;27;20545;-72
2022/06/28 09:19:57;;;;;;;2.50;1.20;;;;;;;20.30;56.27;101501.69;5025733;27;20409;-73
2022/06/28 09:22:40;;;;;;;3.45;2.90;;;;;;;20.52;55.08;101497.28;5016682;27;20681;-73
2022/06/28 09:25:13;;;;;;;1.33;1.23;;;;;;;20.54;53.91;101497.09;5031707;27;20353;-75
2022/06/28 09:27:41;;;;;;;1.20;1.20;;;;;;;20.87;58.56;101499.41;5051169;27;20143;-73
2022/06/28 09:30:08;;;;;;;1.27;1.10;;;;;;;21.21;57.68;101500.69;5000496;27;20305;-73
2022/06/28 09:32:35;;;;;;;1.55;1.30;;;;;;;21.32;54.19;101500.22;5015416;27;20951;-72
2022/06/28 09:35:01;;;;;;;2.08;1.10;;;;;;;21.27;54.06;101495.38;5013653;27;20819;-74
2022/06/28 09:37:49;;;;;;;1.42;1.33;;;;;;;21.44;52.11;101495.16;5027998;27;20028;-72
2022/06/28 09:40:40;;;;;;;1.17;1.10;;;;;;;21.70;52.14;101489.25;5028930;27;20013;-74
2022/06/28 09:43:10;;;;;;;2.25;1.15;;;;;;;21.88;49.53;101493.34;5029095;27;21157;-73
2022/06/28 09:45:37;;;;;;;2.53;1.10;;;;;;;22.25;51.76;101492.19;5008237;27;20025;-73
2022/06/28 09:48:03;;;;;;;2.15;0.93;;;;;;;22.39;50.40;101490.47;5010505;27;20498;-73
2022/06/28 09:50:29;;;;;;;0.80;0.77;;;;;;;22.61;50.44;101485.81;4991889;27;20108;-73
2022/06/28 09:52:55;;;;;;;0.77;0.75;;;;;;;22.78;48.95;101485.50;5010661;27;20158;-73
2022/06/28 09:55:21;;;;;;;0.90;0.73;;;;;;;22.98;48.05;101478.34;4992290;27;20364;-73
2022/06/28 09:57:47;;;;;;;0.98;0.80;;;;;;;23.15;47.27;101484.25;4989679;27;20009;-75
2022/06/28 10:00:14;;;;;;;2.08;0.70;;;;;;;23.40;44.34;101478.28;5018577;27;20430;-72
2022/06/28 10:02:41;;;;;;;0.73;0.73;;;;;;;23.23;45.65;101461.63;4975475;27;20429;-75
2022/06/28 10:05:07;;;;;;;0.70;0.70;;;;;;;23.48;44.92;101471.88;4994056;27;20116;-73
2022/06/28 10:07:34;;;;;;;0.85;0.77;;;;;;;23.47;43.02;101462.91;5008474;27;20017;-72
2022/06/28 17:50:54;;;;;;;0.95;0.90;;;;;;;24.71;38.88;101042.97;5078323;27;20401;-72
2022/06/28 17:53:19;;;;;;;1.00;1.00;;;;;;;24.76;37.84;101048.56;5013037;27;21217;-73
2022/06/28 17:55:45;;;;;;;3.95;3.65;;;;;;;24.73;38.31;101050.88;5017028;27;20198;-74
2022/06/28 17:58:10;;;;;;;2.20;2.10;;;;;;;24.74;38.69;101037.09;4991341;28;20009;-72
2022/06/28 18:00:36;;;;;;;1.67;1.50;;;;;;;24.61;39.83;101038.06;4986418;28;20020;-74
2022/06/28 18:03:01;;;;;;;1.17;0.90;;;;;;;24.57;39.81;101034.13;4999977;28;20086;-75
2022/06/28 18:05:26;;;;;;;1.05;0.95;;;;;;;24.44;39.30;101040.50;4979802;28;20257;-74
2022/06/28 18:07:52;;;;;;;2.05;1.02;;;;;;;24.50;40.28;101038.78;5026205;28;20601;-73
2022/06/28 18:10:17;;;;;;;1.38;0.90;;;;;;;24.47;40.71;101039.22;5018265;28;20443;-73
2022/06/28 18:12:43;;;;;;;1.55;0.80;;;;;;;24.42;40.79;101039.06;5000644;28;20036;-73
2022/06/28 18:15:09;;;;;;;1.00;0.80;;;;;;;24.38;41.95;101040.53;4986271;27;20082;-73
2022/06/28 18:17:34;;;;;;;1.75;0.80;;;;;;;24.31;42.40;101043.28;5005200;28;20009;-73
2022/06/28 18:20:00;;;;;;;0.90;0.90;;;;;;;24.17;42.16;101024.50;5020155;28;20498;-72
2022/06/28 18:22:26;;;;;;;1.50;1.02;;;;;;;24.13;43.47;101030.56;4984721;28;20078;-73
2022/06/28 18:24:52;;;;;;;1.85;1.05;;;;;;;24.12;43.44;101027.00;4985680;28;20025;-74
2022/06/28 18:27:20;;;;;;;2.72;0.82;;;;;;;24.07;44.03;101020.59;5021513;27;20846;-74
2022/06/28 18:29:47;;;;;;;3.17;0.90;;;;;;;24.06;44.65;101024.38;4968953;28;20611;-75
2022/06/28 18:32:12;;;;;;;2.13;0.93;;;;;;;23.99;45.62;101033.34;4986657;28;20021;-73
2022/06/28 18:34:38;;;;;;;1.45;1.08;;;;;;;23.96;46.62;101020.28;5002303;28;20059;-74
2022/06/28 18:37:03;;;;;;;0.95;0.90;;;;;;;23.94;46.79;101014.25;5004421;28;20481;-72
2022/06/28 18:39:29;;;;;;;3.17;0.77;;;;;;;23.91;47.73;101020.09;4985627;28;20009;-73
2022/06/28 18:41:54;;;;;;;5.35;0.80;;;;;;;23.92;47.70;101026.34;4971637;28;20109;-71
2022/06/28 18:44:20;;;;;;;4.05;0.95;;;;;;;23.87;48.51;101023.44;5018800;28;20400;-73
2022/06/28 18:46:46;;;;;;;2.35;0.98;;;;;;;23.76;50.36;101031.22;5002915;28;20021;-75
2022/06/28 18:49:11;;;;;;;9.30;1.05;;;;;;;23.60;50.41;101026.31;4989153;28;20229;-74
2022/06/28 18:51:37;;;;;;;2.28;1.65;;;;;;;23.46;51.48;101017.44;4980359;28;20021;-74
2022/06/28 18:54:02;;;;;;;5.68;1.08;;;;;;;23.34;51.65;101017.31;4985129;28;20753;-73
2022/06/28 18:56:28;;;;;;;3.55;1.20;;;;;;;23.17;51.72;101025.06;5000380;28;20013;-72
2022/06/28 18:58:53;;;;;;;4.05;1.08;;;;;;;23.04;52.33;101025.91;4996017;28;20017;-72
2022/06/28 19:01:19;;;;;;;2.35;1.30;;;;;;;22.92;53.02;101023.03;5006143;28;20614;-72
2022/06/28 19:03:44;;;;;;;4.72;1.23;;;;;;;22.84;53.03;101015.16;5006618;28;20017;-73
2022/06/28 19:06:09;;;;;;;1.80;0.93;;;;;;;22.80;53.47;101019.31;4963113;28;20332;-73
2022/06/28 19:08:35;;;;;;;2.17;0.70;;;;;;;22.72;53.31;101009.59;4982010;28;20021;-72